sensor_id;sensor_type;location;lat;lon;timestamp;temperature;humidity
28546;DHT22;15749;49.606;8.738;2023-06-10T00:00:00;25.90;69.80
28546;DHT22;15749;49.606;8.738;2023-06-10T00:02:57;25.90;70.40
28546;DHT22;15749;49.606;8.738;2023-06-10T00:05:45;25.80;70.10
28546;DHT22;15749;49.606;8.738;2023-06-10T00:08:33;25.80;70.20
28546;DHT22;15749;49.606;8.738;2023-06-10T00:11:27;25.80;70.10
28546;DHT22;15749;49.606;8.738;2023-06-10T00:14:15;25.80;70.80
28546;DHT22;15749;49.606;8.738;2023-06-10T00:17:05;25.70;70.50
28546;DHT22;15749;49.606;8.738;2023-06-10T00:19:59;25.70;70.90
28546;DHT22;15749;49.606;8.738;2023-06-10T00:22:51;25.70;70.30
28546;DHT22;15749;49.606;8.738;2023-06-10T00:25:39;25.60;70.80
28546;DHT22;15749;49.606;8.738;2023-06-10T00:28:27;25.60;70.80
28546;DHT22;15749;49.606;8.738;2023-06-10T00:31:16;25.60;70.50
28546;DHT22;15749;49.606;8.738;2023-06-10T00:34:05;25.60;71.10
28546;DHT22;15749;49.606;8.738;2023-06-10T00:36:54;25.60;71.20
28546;DHT22;15749;49.606;8.738;2023-06-10T00:39:41;25.50;71.10
28546;DHT22;15749;49.606;8.738;2023-06-10T00:42:30;25.50;71.20
28546;DHT22;15749;49.606;8.738;2023-06-10T00:45:18;25.50;71.10
28546;DHT22;15749;49.606;8.738;2023-06-10T00:48:06;25.50;70.70
28546;DHT22;15749;49.606;8.738;2023-06-10T00:50:56;25.50;71.40
28546;DHT22;15749;49.606;8.738;2023-06-10T00:53:44;25.50;71.80
28546;DHT22;15749;49.606;8.738;2023-06-10T00:56:33;25.50;71.20
28546;DHT22;15749;49.606;8.738;2023-06-10T00:59:22;25.50;71.70
28546;DHT22;15749;49.606;8.738;2023-06-10T01:02:11;25.40;71.40
28546;DHT22;15749;49.606;8.738;2023-06-10T01:05:02;25.40;70.70
28546;DHT22;15749;49.606;8.738;2023-06-10T01:07:59;25.40;71.60
28546;DHT22;15749;49.606;8.738;2023-06-10T01:10:53;25.40;72.00
28546;DHT22;15749;49.606;8.738;2023-06-10T01:13:45;25.40;72.00
28546;DHT22;15749;49.606;8.738;2023-06-10T01:16:34;25.40;72.00
28546;DHT22;15749;49.606;8.738;2023-06-10T01:19:23;25.30;71.90
28546;DHT22;15749;49.606;8.738;2023-06-10T01:22:12;25.30;71.90
28546;DHT22;15749;49.606;8.738;2023-06-10T01:25:02;25.30;72.00
28546;DHT22;15749;49.606;8.738;2023-06-10T01:27:52;25.30;72.00
28546;DHT22;15749;49.606;8.738;2023-06-10T01:30:45;25.30;72.30
28546;DHT22;15749;49.606;8.738;2023-06-10T01:33:38;25.30;72.50
28546;DHT22;15749;49.606;8.738;2023-06-10T01:36:29;25.30;72.10
28546;DHT22;15749;49.606;8.738;2023-06-10T01:39:23;25.30;72.10
28546;DHT22;15749;49.606;8.738;2023-06-10T01:42:11;25.30;72.10
28546;DHT22;15749;49.606;8.738;2023-06-10T01:45:00;25.30;71.10
28546;DHT22;15749;49.606;8.738;2023-06-10T01:47:48;25.20;71.80
28546;DHT22;15749;49.606;8.738;2023-06-10T01:50:36;25.20;71.40
28546;DHT22;15749;49.606;8.738;2023-06-10T01:53:24;25.20;71.90
28546;DHT22;15749;49.606;8.738;2023-06-10T01:56:14;25.20;71.80
28546;DHT22;15749;49.606;8.738;2023-06-10T01:59:04;25.20;71.70
28546;DHT22;15749;49.606;8.738;2023-06-10T02:01:52;25.20;71.90
28546;DHT22;15749;49.606;8.738;2023-06-10T02:04:40;25.20;71.70
28546;DHT22;15749;49.606;8.738;2023-06-10T02:07:28;25.20;71.80
28546;DHT22;15749;49.606;8.738;2023-06-10T02:10:16;25.20;72.10
28546;DHT22;15749;49.606;8.738;2023-06-10T02:13:05;25.10;71.80
28546;DHT22;15749;49.606;8.738;2023-06-10T02:15:54;25.20;72.20
28546;DHT22;15749;49.606;8.738;2023-06-10T02:18:42;25.10;71.30
28546;DHT22;15749;49.606;8.738;2023-06-10T02:21:32;25.10;72.10
28546;DHT22;15749;49.606;8.738;2023-06-10T02:24:21;25.10;72.40
28546;DHT22;15749;49.606;8.738;2023-06-10T02:27:09;25.10;72.30
28546;DHT22;15749;49.606;8.738;2023-06-10T02:30:00;25.00;72.30
28546;DHT22;15749;49.606;8.738;2023-06-10T02:32:50;25.00;71.80
28546;DHT22;15749;49.606;8.738;2023-06-10T02:35:39;25.00;72.00
28546;DHT22;15749;49.606;8.738;2023-06-10T02:38:27;25.00;71.80
28546;DHT22;15749;49.606;8.738;2023-06-10T02:41:17;25.00;71.20
28546;DHT22;15749;49.606;8.738;2023-06-10T02:44:05;25.00;71.80
28546;DHT22;15749;49.606;8.738;2023-06-10T02:46:55;24.90;71.70
28546;DHT22;15749;49.606;8.738;2023-06-10T02:49:44;24.90;71.70
28546;DHT22;15749;49.606;8.738;2023-06-10T02:52:32;24.90;71.30
28546;DHT22;15749;49.606;8.738;2023-06-10T02:55:20;24.90;71.90
28546;DHT22;15749;49.606;8.738;2023-06-10T02:58:18;24.90;71.90
28546;DHT22;15749;49.606;8.738;2023-06-10T03:01:08;24.90;72.30
28546;DHT22;15749;49.606;8.738;2023-06-10T03:04:07;24.80;72.30
28546;DHT22;15749;49.606;8.738;2023-06-10T03:06:56;24.80;71.60
28546;DHT22;15749;49.606;8.738;2023-06-10T03:09:53;24.80;72.70
28546;DHT22;15749;49.606;8.738;2023-06-10T03:12:41;24.80;72.40
28546;DHT22;15749;49.606;8.738;2023-06-10T03:15:29;24.70;72.40
28546;DHT22;15749;49.606;8.738;2023-06-10T03:18:26;24.70;72.50
28546;DHT22;15749;49.606;8.738;2023-06-10T03:21:17;24.70;73.10
28546;DHT22;15749;49.606;8.738;2023-06-10T03:24:07;24.70;72.40
28546;DHT22;15749;49.606;8.738;2023-06-10T03:27:01;24.70;72.40
28546;DHT22;15749;49.606;8.738;2023-06-10T03:29:57;24.60;72.80
28546;DHT22;15749;49.606;8.738;2023-06-10T03:32:56;24.60;72.80
28546;DHT22;15749;49.606;8.738;2023-06-10T03:35:47;24.60;73.40
28546;DHT22;15749;49.606;8.738;2023-06-10T03:38:42;24.60;72.80
28546;DHT22;15749;49.606;8.738;2023-06-10T03:44:45;24.60;73.60
28546;DHT22;15749;49.606;8.738;2023-06-10T03:47:54;24.50;73.50
28546;DHT22;15749;49.606;8.738;2023-06-10T03:51:31;24.50;72.60
28546;DHT22;15749;49.606;8.738;2023-06-10T03:59:01;24.50;74.00
28546;DHT22;15749;49.606;8.738;2023-06-10T04:02:28;24.50;74.10
28546;DHT22;15749;49.606;8.738;2023-06-10T04:05:32;24.40;72.90
28546;DHT22;15749;49.606;8.738;2023-06-10T04:08:25;24.40;73.70
28546;DHT22;15749;49.606;8.738;2023-06-10T04:12:28;24.40;73.10
28546;DHT22;15749;49.606;8.738;2023-06-10T04:16:45;24.30;74.40
28546;DHT22;15749;49.606;8.738;2023-06-10T04:34:10;24.20;74.50
28546;DHT22;15749;49.606;8.738;2023-06-10T04:43:50;24.20;75.10
28546;DHT22;15749;49.606;8.738;2023-06-10T04:57:13;24.20;74.80
28546;DHT22;15749;49.606;8.738;2023-06-10T05:04:47;24.10;75.00
28546;DHT22;15749;49.606;8.738;2023-06-10T05:08:17;24.10;74.00
28546;DHT22;15749;49.606;8.738;2023-06-10T05:16:27;24.20;75.60
28546;DHT22;15749;49.606;8.738;2023-06-10T05:20:23;24.10;75.70
28546;DHT22;15749;49.606;8.738;2023-06-10T05:23:53;24.10;74.70
28546;DHT22;15749;49.606;8.738;2023-06-10T05:31:02;24.10;75.60
28546;DHT22;15749;49.606;8.738;2023-06-10T05:34:07;24.20;73.40
28546;DHT22;15749;49.606;8.738;2023-06-10T05:37:05;24.00;74.00
28546;DHT22;15749;49.606;8.738;2023-06-10T05:39:53;24.20;74.80
28546;DHT22;15749;49.606;8.738;2023-06-10T05:43:01;24.20;74.80
28546;DHT22;15749;49.606;8.738;2023-06-10T05:46:24;24.20;74.90
28546;DHT22;15749;49.606;8.738;2023-06-10T05:50:22;24.10;75.70
28546;DHT22;15749;49.606;8.738;2023-06-10T05:53:13;24.20;75.20
28546;DHT22;15749;49.606;8.738;2023-06-10T05:56:24;24.30;75.00
28546;DHT22;15749;49.606;8.738;2023-06-10T05:59:53;24.20;76.10
28546;DHT22;15749;49.606;8.738;2023-06-10T06:04:17;24.30;76.80
28546;DHT22;15749;49.606;8.738;2023-06-10T06:07:58;24.30;76.90
28546;DHT22;15749;49.606;8.738;2023-06-10T06:11:09;24.40;76.20
28546;DHT22;15749;49.606;8.738;2023-06-10T06:14:47;24.50;76.70
28546;DHT22;15749;49.606;8.738;2023-06-10T06:19:11;24.50;76.90
28546;DHT22;15749;49.606;8.738;2023-06-10T06:24:10;24.60;75.70
28546;DHT22;15749;49.606;8.738;2023-06-10T06:26:41;24.70;76.90
28546;DHT22;15749;49.606;8.738;2023-06-10T06:29:48;24.70;75.70
28546;DHT22;15749;49.606;8.738;2023-06-10T06:33:35;24.70;76.50
28546;DHT22;15749;49.606;8.738;2023-06-10T06:37:11;24.70;75.90
28546;DHT22;15749;49.606;8.738;2023-06-10T06:40:32;24.70;76.90
28546;DHT22;15749;49.606;8.738;2023-06-10T06:44:48;24.90;76.30
28546;DHT22;15749;49.606;8.738;2023-06-10T06:51:51;25.00;76.80
28546;DHT22;15749;49.606;8.738;2023-06-10T06:55:21;25.00;77.10
28546;DHT22;15749;49.606;8.738;2023-06-10T07:03:42;25.20;77.10
28546;DHT22;15749;49.606;8.738;2023-06-10T07:06:33;25.20;75.80
28546;DHT22;15749;49.606;8.738;2023-06-10T07:09:24;25.30;76.10
28546;DHT22;15749;49.606;8.738;2023-06-10T07:12:14;25.30;76.20
28546;DHT22;15749;49.606;8.738;2023-06-10T07:15:16;25.30;76.40
28546;DHT22;15749;49.606;8.738;2023-06-10T07:18:03;25.40;76.80
28546;DHT22;15749;49.606;8.738;2023-06-10T07:20:53;25.40;76.50
28546;DHT22;15749;49.606;8.738;2023-06-10T07:23:42;25.50;76.70
28546;DHT22;15749;49.606;8.738;2023-06-10T07:27:07;25.50;76.80
28546;DHT22;15749;49.606;8.738;2023-06-10T07:29:56;25.60;76.70
28546;DHT22;15749;49.606;8.738;2023-06-10T07:32:46;25.60;76.40
28546;DHT22;15749;49.606;8.738;2023-06-10T07:35:44;25.60;77.00
28546;DHT22;15749;49.606;8.738;2023-06-10T07:38:36;25.70;77.10
28546;DHT22;15749;49.606;8.738;2023-06-10T07:41:29;25.80;76.70
28546;DHT22;15749;49.606;8.738;2023-06-10T07:44:24;25.80;76.30
28546;DHT22;15749;49.606;8.738;2023-06-10T07:47:15;25.90;76.10
28546;DHT22;15749;49.606;8.738;2023-06-10T07:50:29;26.00;76.10
28546;DHT22;15749;49.606;8.738;2023-06-10T07:53:19;25.90;76.30
28546;DHT22;15749;49.606;8.738;2023-06-10T07:56:16;26.10;76.00
28546;DHT22;15749;49.606;8.738;2023-06-10T07:59:05;26.10;76.50
28546;DHT22;15749;49.606;8.738;2023-06-10T08:01:57;26.20;76.00
28546;DHT22;15749;49.606;8.738;2023-06-10T08:04:45;26.20;76.60
28546;DHT22;15749;49.606;8.738;2023-06-10T08:07:34;26.30;76.50
28546;DHT22;15749;49.606;8.738;2023-06-10T08:10:24;26.40;76.80
28546;DHT22;15749;49.606;8.738;2023-06-10T08:13:18;26.40;76.60
28546;DHT22;15749;49.606;8.738;2023-06-10T08:16:07;26.50;75.80
28546;DHT22;15749;49.606;8.738;2023-06-10T08:18:57;26.60;75.60
28546;DHT22;15749;49.606;8.738;2023-06-10T08:21:50;26.50;75.70
28546;DHT22;15749;49.606;8.738;2023-06-10T08:24:40;26.70;76.30
28546;DHT22;15749;49.606;8.738;2023-06-10T08:27:29;26.60;75.90
28546;DHT22;15749;49.606;8.738;2023-06-10T08:30:47;26.80;76.10
28546;DHT22;15749;49.606;8.738;2023-06-10T08:34:06;26.90;76.20
28546;DHT22;15749;49.606;8.738;2023-06-10T08:37:09;26.90;75.90
28546;DHT22;15749;49.606;8.738;2023-06-10T08:40:36;27.00;75.50
28546;DHT22;15749;49.606;8.738;2023-06-10T08:44:02;27.10;75.60
28546;DHT22;15749;49.606;8.738;2023-06-10T08:47:00;27.20;75.90
28546;DHT22;15749;49.606;8.738;2023-06-10T08:53:37;27.30;75.70
28546;DHT22;15749;49.606;8.738;2023-06-10T08:56:40;27.30;75.20
28546;DHT22;15749;49.606;8.738;2023-06-10T08:59:50;27.40;75.30
28546;DHT22;15749;49.606;8.738;2023-06-10T09:02:50;27.50;75.20
28546;DHT22;15749;49.606;8.738;2023-06-10T09:05:39;27.50;75.10
28546;DHT22;15749;49.606;8.738;2023-06-10T09:08:39;27.50;74.60
28546;DHT22;15749;49.606;8.738;2023-06-10T09:11:28;27.60;75.20
28546;DHT22;15749;49.606;8.738;2023-06-10T09:14:19;27.60;75.00
28546;DHT22;15749;49.606;8.738;2023-06-10T09:17:10;27.70;73.20
28546;DHT22;15749;49.606;8.738;2023-06-10T09:19:59;27.70;74.10
28546;DHT22;15749;49.606;8.738;2023-06-10T09:22:52;27.80;73.40
28546;DHT22;15749;49.606;8.738;2023-06-10T09:25:43;27.80;74.00
28546;DHT22;15749;49.606;8.738;2023-06-10T09:28:31;27.90;73.90
28546;DHT22;15749;49.606;8.738;2023-06-10T09:31:24;27.90;73.40
28546;DHT22;15749;49.606;8.738;2023-06-10T09:34:15;27.90;73.30
28546;DHT22;15749;49.606;8.738;2023-06-10T09:38:03;28.00;73.10
28546;DHT22;15749;49.606;8.738;2023-06-10T09:45:13;28.20;72.10
28546;DHT22;15749;49.606;8.738;2023-06-10T09:48:04;28.30;72.70
28546;DHT22;15749;49.606;8.738;2023-06-10T09:51:04;28.20;73.10
28546;DHT22;15749;49.606;8.738;2023-06-10T09:54:12;28.30;71.80
28546;DHT22;15749;49.606;8.738;2023-06-10T09:57:11;28.30;70.00
28546;DHT22;15749;49.606;8.738;2023-06-10T10:04:26;28.40;70.50
28546;DHT22;15749;49.606;8.738;2023-06-10T10:07:40;28.50;70.40
28546;DHT22;15749;49.606;8.738;2023-06-10T10:10:47;28.50;70.30
28546;DHT22;15749;49.606;8.738;2023-06-10T10:13:48;28.50;70.00
28546;DHT22;15749;49.606;8.738;2023-06-10T10:16:41;28.60;69.20
28546;DHT22;15749;49.606;8.738;2023-06-10T10:19:43;28.60;68.60
28546;DHT22;15749;49.606;8.738;2023-06-10T10:22:38;28.60;68.60
28546;DHT22;15749;49.606;8.738;2023-06-10T10:25:37;28.60;69.70
28546;DHT22;15749;49.606;8.738;2023-06-10T10:29:09;28.70;69.20
28546;DHT22;15749;49.606;8.738;2023-06-10T10:32:34;28.60;69.40
28546;DHT22;15749;49.606;8.738;2023-06-10T10:35:38;28.80;69.40
28546;DHT22;15749;49.606;8.738;2023-06-10T10:38:42;28.80;68.00
28546;DHT22;15749;49.606;8.738;2023-06-10T10:41:33;28.80;68.70
28546;DHT22;15749;49.606;8.738;2023-06-10T10:48:13;28.80;68.50
28546;DHT22;15749;49.606;8.738;2023-06-10T10:51:13;28.90;67.80
28546;DHT22;15749;49.606;8.738;2023-06-10T10:54:11;29.00;68.20
28546;DHT22;15749;49.606;8.738;2023-06-10T10:57:20;29.00;68.80
28546;DHT22;15749;49.606;8.738;2023-06-10T11:00:37;28.90;66.90
28546;DHT22;15749;49.606;8.738;2023-06-10T11:03:44;29.10;67.10
28546;DHT22;15749;49.606;8.738;2023-06-10T11:07:51;29.10;67.80
28546;DHT22;15749;49.606;8.738;2023-06-10T11:10:55;29.20;67.30
28546;DHT22;15749;49.606;8.738;2023-06-10T11:13:58;29.20;68.70
28546;DHT22;15749;49.606;8.738;2023-06-10T11:16:47;29.20;67.80
28546;DHT22;15749;49.606;8.738;2023-06-10T11:19:40;29.20;68.40
28546;DHT22;15749;49.606;8.738;2023-06-10T11:23:00;29.30;68.30
28546;DHT22;15749;49.606;8.738;2023-06-10T11:26:29;29.30;67.50
28546;DHT22;15749;49.606;8.738;2023-06-10T11:29:22;29.40;66.70
28546;DHT22;15749;49.606;8.738;2023-06-10T11:32:11;29.40;67.50
28546;DHT22;15749;49.606;8.738;2023-06-10T11:35:00;29.40;67.20
28546;DHT22;15749;49.606;8.738;2023-06-10T11:37:50;29.50;67.30
28546;DHT22;15749;49.606;8.738;2023-06-10T11:41:05;29.50;67.40
28546;DHT22;15749;49.606;8.738;2023-06-10T11:44:17;29.50;68.00
28546;DHT22;15749;49.606;8.738;2023-06-10T11:47:57;29.50;67.20
28546;DHT22;15749;49.606;8.738;2023-06-10T11:50:45;29.60;67.80
28546;DHT22;15749;49.606;8.738;2023-06-10T11:53:43;29.60;67.60
28546;DHT22;15749;49.606;8.738;2023-06-10T11:57:01;29.60;66.70
28546;DHT22;15749;49.606;8.738;2023-06-10T12:00:07;29.60;66.90
28546;DHT22;15749;49.606;8.738;2023-06-10T12:03:02;29.60;66.60
28546;DHT22;15749;49.606;8.738;2023-06-10T12:05:58;29.60;67.40
28546;DHT22;15749;49.606;8.738;2023-06-10T12:08:46;29.60;66.80
28546;DHT22;15749;49.606;8.738;2023-06-10T12:15:23;29.60;66.60
28546;DHT22;15749;49.606;8.738;2023-06-10T12:18:18;29.70;67.00
28546;DHT22;15749;49.606;8.738;2023-06-10T12:21:19;29.70;66.40
28546;DHT22;15749;49.606;8.738;2023-06-10T12:24:13;29.70;66.20
28546;DHT22;15749;49.606;8.738;2023-06-10T12:27:03;29.70;66.80
28546;DHT22;15749;49.606;8.738;2023-06-10T12:29:52;29.70;66.30
28546;DHT22;15749;49.606;8.738;2023-06-10T12:32:42;29.70;66.00
28546;DHT22;15749;49.606;8.738;2023-06-10T12:35:34;29.70;65.60
28546;DHT22;15749;49.606;8.738;2023-06-10T12:39:02;29.70;65.10
28546;DHT22;15749;49.606;8.738;2023-06-10T12:41:52;29.70;64.40
28546;DHT22;15749;49.606;8.738;2023-06-10T12:45:03;29.70;64.40
28546;DHT22;15749;49.606;8.738;2023-06-10T12:48:08;29.70;64.60
28546;DHT22;15749;49.606;8.738;2023-06-10T12:50:59;29.70;65.00
28546;DHT22;15749;49.606;8.738;2023-06-10T12:53:47;29.70;64.30
28546;DHT22;15749;49.606;8.738;2023-06-10T12:56:41;29.70;63.70
28546;DHT22;15749;49.606;8.738;2023-06-10T12:59:36;29.60;64.10
28546;DHT22;15749;49.606;8.738;2023-06-10T13:02:42;29.70;64.40
28546;DHT22;15749;49.606;8.738;2023-06-10T13:05:40;29.70;63.30
28546;DHT22;15749;49.606;8.738;2023-06-10T13:08:52;29.70;63.40
28546;DHT22;15749;49.606;8.738;2023-06-10T13:11:40;29.70;63.30
28546;DHT22;15749;49.606;8.738;2023-06-10T13:14:29;29.70;63.80
28546;DHT22;15749;49.606;8.738;2023-06-10T13:17:16;29.70;63.90
28546;DHT22;15749;49.606;8.738;2023-06-10T13:20:15;29.70;64.20
28546;DHT22;15749;49.606;8.738;2023-06-10T13:23:09;29.70;63.40
28546;DHT22;15749;49.606;8.738;2023-06-10T13:25:58;29.70;62.90
28546;DHT22;15749;49.606;8.738;2023-06-10T13:28:49;29.70;63.50
28546;DHT22;15749;49.606;8.738;2023-06-10T13:31:39;29.70;63.80
28546;DHT22;15749;49.606;8.738;2023-06-10T13:34:27;29.80;63.00
28546;DHT22;15749;49.606;8.738;2023-06-10T13:40:23;29.80;63.90
28546;DHT22;15749;49.606;8.738;2023-06-10T13:43:16;29.80;63.40
28546;DHT22;15749;49.606;8.738;2023-06-10T13:46:03;29.80;62.90
28546;DHT22;15749;49.606;8.738;2023-06-10T13:48:54;29.80;63.30
28546;DHT22;15749;49.606;8.738;2023-06-10T13:51:42;29.80;63.40
28546;DHT22;15749;49.606;8.738;2023-06-10T13:54:49;29.80;63.30
28546;DHT22;15749;49.606;8.738;2023-06-10T13:57:37;29.80;64.00
28546;DHT22;15749;49.606;8.738;2023-06-10T14:00:28;29.90;63.40
28546;DHT22;15749;49.606;8.738;2023-06-10T14:03:36;29.90;63.20
28546;DHT22;15749;49.606;8.738;2023-06-10T14:06:58;29.90;63.20
28546;DHT22;15749;49.606;8.738;2023-06-10T14:09:52;29.90;64.20
28546;DHT22;15749;49.606;8.738;2023-06-10T14:12:48;29.90;62.40
28546;DHT22;15749;49.606;8.738;2023-06-10T14:15:43;29.90;63.50
28546;DHT22;15749;49.606;8.738;2023-06-10T14:18:33;29.90;63.60
28546;DHT22;15749;49.606;8.738;2023-06-10T14:21:28;29.90;62.20
28546;DHT22;15749;49.606;8.738;2023-06-10T14:24:27;29.90;62.30
28546;DHT22;15749;49.606;8.738;2023-06-10T14:32:36;29.90;62.60
28546;DHT22;15749;49.606;8.738;2023-06-10T14:35:47;30.00;63.00
28546;DHT22;15749;49.606;8.738;2023-06-10T14:39:45;30.00;62.90
28546;DHT22;15749;49.606;8.738;2023-06-10T14:43:43;29.90;63.60
28546;DHT22;15749;49.606;8.738;2023-06-10T14:46:30;30.00;63.40
28546;DHT22;15749;49.606;8.738;2023-06-10T14:49:19;30.00;63.20
28546;DHT22;15749;49.606;8.738;2023-06-10T14:52:07;30.00;63.10
28546;DHT22;15749;49.606;8.738;2023-06-10T14:54:55;30.00;62.70
28546;DHT22;15749;49.606;8.738;2023-06-10T14:57:42;30.00;63.40
28546;DHT22;15749;49.606;8.738;2023-06-10T15:00:29;29.90;63.00
28546;DHT22;15749;49.606;8.738;2023-06-10T15:03:16;30.00;63.80
28546;DHT22;15749;49.606;8.738;2023-06-10T15:06:05;29.90;62.90
28546;DHT22;15749;49.606;8.738;2023-06-10T15:08:53;29.90;63.20
28546;DHT22;15749;49.606;8.738;2023-06-10T15:11:40;30.00;63.20
28546;DHT22;15749;49.606;8.738;2023-06-10T15:14:28;29.90;63.30
28546;DHT22;15749;49.606;8.738;2023-06-10T15:17:15;29.90;62.70
28546;DHT22;15749;49.606;8.738;2023-06-10T15:20:03;29.90;62.70
28546;DHT22;15749;49.606;8.738;2023-06-10T15:22:53;29.90;63.10
28546;DHT22;15749;49.606;8.738;2023-06-10T15:25:40;29.90;62.50
28546;DHT22;15749;49.606;8.738;2023-06-10T15:28:28;29.90;62.50
28546;DHT22;15749;49.606;8.738;2023-06-10T15:31:15;29.90;62.60
28546;DHT22;15749;49.606;8.738;2023-06-10T15:34:02;29.90;62.40
28546;DHT22;15749;49.606;8.738;2023-06-10T15:36:50;29.90;62.90
28546;DHT22;15749;49.606;8.738;2023-06-10T15:39:39;29.90;62.70
28546;DHT22;15749;49.606;8.738;2023-06-10T15:42:26;29.90;62.60
28546;DHT22;15749;49.606;8.738;2023-06-10T15:45:14;29.90;62.50
28546;DHT22;15749;49.606;8.738;2023-06-10T15:48:01;29.90;62.40
28546;DHT22;15749;49.606;8.738;2023-06-10T15:50:49;29.90;62.60
28546;DHT22;15749;49.606;8.738;2023-06-10T15:53:36;29.90;62.50
28546;DHT22;15749;49.606;8.738;2023-06-10T15:56:25;29.90;62.10
28546;DHT22;15749;49.606;8.738;2023-06-10T15:59:13;30.00;62.30
28546;DHT22;15749;49.606;8.738;2023-06-10T16:02:00;29.90;62.70
28546;DHT22;15749;49.606;8.738;2023-06-10T16:04:49;30.00;62.90
28546;DHT22;15749;49.606;8.738;2023-06-10T16:07:36;30.00;62.80
28546;DHT22;15749;49.606;8.738;2023-06-10T16:10:23;30.00;63.30
28546;DHT22;15749;49.606;8.738;2023-06-10T16:13:13;30.00;63.00
28546;DHT22;15749;49.606;8.738;2023-06-10T16:16:01;30.00;62.50
28546;DHT22;15749;49.606;8.738;2023-06-10T16:18:48;29.90;62.70
28546;DHT22;15749;49.606;8.738;2023-06-10T16:21:36;30.00;62.90
28546;DHT22;15749;49.606;8.738;2023-06-10T16:24:26;30.00;62.70
28546;DHT22;15749;49.606;8.738;2023-06-10T16:27:13;29.90;62.50
28546;DHT22;15749;49.606;8.738;2023-06-10T16:30:02;29.90;63.00
28546;DHT22;15749;49.606;8.738;2023-06-10T16:32:50;29.90;62.70
28546;DHT22;15749;49.606;8.738;2023-06-10T16:35:37;29.90;62.60
28546;DHT22;15749;49.606;8.738;2023-06-10T16:38:24;29.90;63.40
28546;DHT22;15749;49.606;8.738;2023-06-10T16:41:12;29.90;63.10
28546;DHT22;15749;49.606;8.738;2023-06-10T16:43:59;29.90;62.90
28546;DHT22;15749;49.606;8.738;2023-06-10T16:46:50;29.90;62.90
28546;DHT22;15749;49.606;8.738;2023-06-10T16:49:38;30.00;62.70
28546;DHT22;15749;49.606;8.738;2023-06-10T16:52:25;30.00;63.00
28546;DHT22;15749;49.606;8.738;2023-06-10T16:55:12;29.90;62.90
28546;DHT22;15749;49.606;8.738;2023-06-10T16:58:00;29.90;63.00
28546;DHT22;15749;49.606;8.738;2023-06-10T17:00:48;29.90;62.90
28546;DHT22;15749;49.606;8.738;2023-06-10T17:03:37;29.90;62.90
28546;DHT22;15749;49.606;8.738;2023-06-10T17:06:24;29.90;62.70
28546;DHT22;15749;49.606;8.738;2023-06-10T17:09:12;29.90;63.30
28546;DHT22;15749;49.606;8.738;2023-06-10T17:11:59;29.90;63.20
28546;DHT22;15749;49.606;8.738;2023-06-10T17:14:46;29.90;63.70
28546;DHT22;15749;49.606;8.738;2023-06-10T17:17:34;29.90;63.10
28546;DHT22;15749;49.606;8.738;2023-06-10T17:20:23;29.90;62.70
28546;DHT22;15749;49.606;8.738;2023-06-10T17:23:11;29.90;62.60
28546;DHT22;15749;49.606;8.738;2023-06-10T17:25:58;29.90;63.40
28546;DHT22;15749;49.606;8.738;2023-06-10T17:28:45;29.90;64.30
28546;DHT22;15749;49.606;8.738;2023-06-10T17:31:33;29.90;63.30
28546;DHT22;15749;49.606;8.738;2023-06-10T17:34:20;29.80;63.00
28546;DHT22;15749;49.606;8.738;2023-06-10T17:37:09;29.80;62.90
28546;DHT22;15749;49.606;8.738;2023-06-10T17:39:56;29.80;63.20
28546;DHT22;15749;49.606;8.738;2023-06-10T17:42:44;29.80;63.20
28546;DHT22;15749;49.606;8.738;2023-06-10T17:45:31;29.80;63.20
28546;DHT22;15749;49.606;8.738;2023-06-10T17:48:18;29.80;63.00
28546;DHT22;15749;49.606;8.738;2023-06-10T17:51:06;29.80;63.00
28546;DHT22;15749;49.606;8.738;2023-06-10T17:53:55;29.80;63.20
28546;DHT22;15749;49.606;8.738;2023-06-10T17:56:43;29.80;62.90
28546;DHT22;15749;49.606;8.738;2023-06-10T17:59:31;29.80;63.70
28546;DHT22;15749;49.606;8.738;2023-06-10T18:02:18;29.70;63.50
28546;DHT22;15749;49.606;8.738;2023-06-10T18:05:06;29.70;63.50
28546;DHT22;15749;49.606;8.738;2023-06-10T18:07:54;29.70;63.50
28546;DHT22;15749;49.606;8.738;2023-06-10T18:10:43;29.70;64.00
28546;DHT22;15749;49.606;8.738;2023-06-10T18:13:31;29.70;63.80
28546;DHT22;15749;49.606;8.738;2023-06-10T18:16:18;29.70;63.50
28546;DHT22;15749;49.606;8.738;2023-06-10T18:19:06;29.70;64.30
28546;DHT22;15749;49.606;8.738;2023-06-10T18:21:53;29.70;63.10
28546;DHT22;15749;49.606;8.738;2023-06-10T18:24:40;29.60;63.60
28546;DHT22;15749;49.606;8.738;2023-06-10T18:27:29;29.60;63.00
28546;DHT22;15749;49.606;8.738;2023-06-10T18:30:16;29.60;63.50
28546;DHT22;15749;49.606;8.738;2023-06-10T18:33:04;29.60;63.90
28546;DHT22;15749;49.606;8.738;2023-06-10T18:35:52;29.60;63.60
28546;DHT22;15749;49.606;8.738;2023-06-10T18:38:39;29.60;63.90
28546;DHT22;15749;49.606;8.738;2023-06-10T18:41:27;29.50;63.90
28546;DHT22;15749;49.606;8.738;2023-06-10T18:44:15;29.50;63.70
28546;DHT22;15749;49.606;8.738;2023-06-10T18:47:04;29.50;63.20
28546;DHT22;15749;49.606;8.738;2023-06-10T18:49:52;29.50;63.30
28546;DHT22;15749;49.606;8.738;2023-06-10T18:52:39;29.40;63.30
28546;DHT22;15749;49.606;8.738;2023-06-10T18:55:26;29.40;63.70
28546;DHT22;15749;49.606;8.738;2023-06-10T18:58:18;29.30;63.70
28546;DHT22;15749;49.606;8.738;2023-06-10T19:01:06;29.30;63.50
28546;DHT22;15749;49.606;8.738;2023-06-10T19:03:54;29.30;63.40
28546;DHT22;15749;49.606;8.738;2023-06-10T19:06:42;29.30;63.60
28546;DHT22;15749;49.606;8.738;2023-06-10T19:09:29;29.30;63.80
28546;DHT22;15749;49.606;8.738;2023-06-10T19:12:17;29.20;63.60
28546;DHT22;15749;49.606;8.738;2023-06-10T19:15:05;29.20;64.10
28546;DHT22;15749;49.606;8.738;2023-06-10T19:17:55;29.20;63.90
28546;DHT22;15749;49.606;8.738;2023-06-10T19:20:43;29.20;64.10
28546;DHT22;15749;49.606;8.738;2023-06-10T19:23:30;29.20;63.90
28546;DHT22;15749;49.606;8.738;2023-06-10T19:26:18;29.20;64.00
28546;DHT22;15749;49.606;8.738;2023-06-10T19:29:05;29.20;64.00
28546;DHT22;15749;49.606;8.738;2023-06-10T19:31:52;29.20;64.00
28546;DHT22;15749;49.606;8.738;2023-06-10T19:34:41;29.10;64.20
28546;DHT22;15749;49.606;8.738;2023-06-10T19:37:29;29.10;64.10
28546;DHT22;15749;49.606;8.738;2023-06-10T19:40:16;29.10;64.20
28546;DHT22;15749;49.606;8.738;2023-06-10T19:43:04;29.10;64.20
28546;DHT22;15749;49.606;8.738;2023-06-10T19:45:51;29.10;64.10
28546;DHT22;15749;49.606;8.738;2023-06-10T19:48:38;29.00;64.00
28546;DHT22;15749;49.606;8.738;2023-06-10T19:51:27;29.00;64.90
28546;DHT22;15749;49.606;8.738;2023-06-10T19:54:15;29.00;64.30
28546;DHT22;15749;49.606;8.738;2023-06-10T19:57:02;29.00;64.30
28546;DHT22;15749;49.606;8.738;2023-06-10T19:59:51;29.00;64.90
28546;DHT22;15749;49.606;8.738;2023-06-10T20:02:38;29.00;64.80
28546;DHT22;15749;49.606;8.738;2023-06-10T20:05:25;28.90;64.80